createdAt,value
2023-03-12T00:00:15.589Z,4.00
2023-03-12T00:03:04.180Z,4.20
2023-03-12T00:05:33.201Z,4.00
2023-03-12T00:08:01.750Z,4.20
2023-03-12T00:10:30.889Z,5.00
2023-03-12T00:13:00.898Z,5.00
2023-03-12T00:15:30.069Z,5.00
2023-03-12T00:17:58.785Z,4.60
2023-03-12T00:20:27.573Z,4.00
2023-03-12T00:22:56.294Z,6.20
2023-03-12T00:25:25.083Z,4.80
2023-03-12T00:27:53.683Z,4.20
2023-03-12T00:30:23.935Z,4.80
2023-03-12T00:32:52.525Z,5.00
2023-03-12T00:35:21.388Z,4.00
2023-03-12T00:37:49.925Z,2.40
2023-03-12T00:40:19.126Z,4.80
2023-03-12T00:42:47.613Z,2.80
2023-03-12T00:45:16.732Z,7.20
2023-03-12T00:47:46.597Z,5.00
2023-03-12T00:50:15.339Z,5.80
2023-03-12T00:52:44.506Z,4.60
2023-03-12T00:55:13.397Z,5.00
2023-03-12T00:57:41.972Z,4.80
2023-03-12T01:00:12.978Z,5.00
2023-03-12T01:02:41.773Z,4.00
2023-03-12T01:05:15.013Z,2.40
2023-03-12T01:07:44.026Z,7.40
2023-03-12T01:10:16.131Z,2.00
2023-03-12T01:12:46.157Z,5.00
2023-03-12T01:15:17.014Z,7.00
2023-03-12T01:17:45.778Z,5.75
2023-03-12T01:20:17.818Z,5.00
2023-03-12T01:22:47.004Z,4.00
2023-03-12T01:25:15.825Z,5.40
2023-03-12T01:27:44.535Z,5.80
2023-03-12T01:30:14.267Z,5.50
2023-03-12T01:32:43.185Z,5.00
2023-03-12T01:35:12.227Z,7.50
2023-03-12T01:37:42.143Z,8.00
2023-03-12T01:40:16.247Z,11.00
2023-03-12T01:42:44.989Z,13.00
2023-03-12T01:45:51.488Z,12.50
2023-03-12T01:48:21.742Z,6.50
2023-03-12T01:50:50.951Z,7.75
2023-03-12T01:53:23.120Z,10.50
2023-03-12T01:55:52.621Z,10.50
2023-03-12T01:58:22.232Z,12.50
2023-03-12T02:00:51.396Z,11.00
2023-03-12T02:03:20.131Z,9.75
2023-03-12T02:05:55.058Z,11.00
2023-03-12T02:08:25.938Z,10.00
2023-03-12T02:10:54.784Z,8.40
2023-03-12T02:13:23.599Z,8.80
2023-03-12T02:15:52.633Z,7.25
2023-03-12T02:18:21.705Z,10.00
2023-03-12T02:20:57.897Z,9.50
2023-03-12T02:23:33.246Z,4.50
2023-03-12T02:26:05.474Z,8.50
2023-03-12T02:28:42.638Z,11.25
2023-03-12T02:31:15.798Z,10.00
2023-03-12T02:33:44.633Z,10.75
2023-03-12T02:36:14.261Z,9.00
2023-03-12T02:38:45.475Z,10.25
2023-03-12T02:41:21.284Z,8.25
2023-03-12T02:43:56.127Z,6.50
2023-03-12T02:46:25.215Z,7.00
2023-03-12T02:48:55.173Z,7.40
2023-03-12T02:51:24.246Z,4.60
2023-03-12T02:53:55.168Z,6.50
2023-03-12T02:56:28.492Z,4.20
2023-03-12T02:58:57.086Z,7.00
2023-03-12T03:01:27.196Z,6.50
2023-03-12T03:03:56.073Z,6.75
2023-03-12T03:06:25.054Z,5.75
2023-03-12T03:08:53.904Z,3.50
2023-03-12T03:11:24.796Z,5.00
2023-03-12T03:13:57.544Z,4.25
2023-03-12T03:16:26.522Z,5.50
2023-03-12T03:18:55.985Z,4.00
2023-03-12T03:21:25.008Z,4.00
2023-03-12T03:23:53.578Z,6.25
2023-03-12T03:26:24.627Z,5.80
2023-03-12T03:28:54.290Z,4.00
2023-03-12T03:31:24.729Z,4.00
2023-03-12T03:33:53.490Z,4.50
2023-03-12T03:36:23.308Z,6.25
2023-03-12T03:39:00.221Z,5.00
2023-03-12T03:41:29.482Z,5.60
2023-03-12T03:43:59.467Z,7.00
2023-03-12T03:46:30.726Z,7.00
2023-03-12T03:49:03.838Z,8.75
2023-03-12T03:51:35.385Z,10.00
2023-03-12T03:54:08.762Z,9.25
2023-03-12T03:56:37.740Z,6.25
2023-03-12T03:59:07.547Z,6.20
2023-03-12T04:01:41.610Z,7.50
2023-03-12T04:04:10.423Z,4.00
2023-03-12T04:06:39.233Z,7.00
2023-03-12T04:09:08.163Z,5.80
2023-03-12T04:11:39.443Z,5.50
2023-03-12T04:14:09.970Z,7.00
2023-03-12T04:16:43.165Z,6.20
2023-03-12T04:19:11.773Z,4.40
2023-03-12T04:21:40.712Z,6.75
2023-03-12T04:24:15.365Z,7.00
2023-03-12T04:26:45.104Z,5.80
2023-03-12T04:29:15.139Z,6.25
2023-03-12T04:31:46.136Z,6.20
2023-03-12T04:34:14.845Z,5.00
2023-03-12T04:36:47.972Z,7.00
2023-03-12T04:39:19.746Z,6.00
2023-03-12T04:41:51.365Z,5.60
2023-03-12T04:44:19.974Z,6.25
2023-03-12T04:46:50.536Z,5.20
2023-03-12T04:49:22.661Z,6.00
2023-03-12T04:51:51.682Z,6.00
2023-03-12T04:54:22.492Z,9.25
2023-03-12T04:56:52.752Z,6.25
2023-03-12T04:59:24.713Z,9.00
2023-03-12T05:01:56.011Z,9.25
2023-03-12T05:04:28.686Z,10.00
2023-03-12T05:06:58.098Z,11.25
2023-03-12T05:09:26.851Z,14.00
2023-03-12T05:11:55.951Z,12.00
2023-03-12T05:14:25.171Z,16.50
2023-03-12T05:16:56.144Z,14.00
2023-03-12T05:19:25.362Z,14.50
2023-03-12T05:21:54.148Z,13.00
2023-03-12T05:24:23.126Z,14.00
2023-03-12T05:26:52.284Z,13.00
2023-03-12T05:29:24.737Z,12.75
2023-03-12T05:31:56.691Z,12.25
2023-03-12T05:34:25.316Z,12.00
2023-03-12T05:36:55.226Z,12.00
2023-03-12T05:39:26.844Z,12.50
2023-03-12T05:41:58.035Z,12.50
2023-03-12T05:44:28.042Z,7.50
2023-03-12T05:46:59.225Z,10.00
2023-03-12T05:49:28.860Z,10.00
2023-03-12T05:51:59.970Z,10.50
2023-03-12T05:54:29.232Z,10.50
2023-03-12T05:56:59.177Z,10.00
2023-03-12T05:59:29.403Z,8.50
2023-03-12T06:02:00.298Z,10.00
2023-03-12T06:04:29.780Z,11.50
2023-03-12T06:06:58.819Z,7.00
2023-03-12T06:09:28.269Z,4.00
2023-03-12T06:11:58.004Z,6.00
2023-03-12T06:14:26.983Z,8.50
2023-03-12T06:16:57.199Z,12.25
2023-03-12T06:19:27.337Z,13.25
2023-03-12T06:21:56.281Z,11.25
2023-03-12T06:24:25.123Z,12.25
2023-03-12T06:27:02.606Z,12.75
2023-03-12T06:29:31.186Z,8.25
2023-03-12T06:32:00.330Z,11.25
2023-03-12T06:34:30.411Z,11.75
2023-03-12T06:36:59.773Z,11.75
2023-03-12T06:39:29.983Z,7.25
2023-03-12T06:41:58.951Z,10.25
2023-03-12T06:44:27.491Z,12.25
2023-03-12T06:46:56.526Z,13.75
2023-03-12T06:49:25.252Z,9.00
2023-03-12T06:51:57.103Z,14.25
2023-03-12T06:54:26.462Z,9.75
2023-03-12T06:56:55.346Z,12.75
2023-03-12T06:59:23.926Z,12.50
2023-03-12T07:01:53.338Z,9.00
2023-03-12T07:04:22.518Z,8.50
2023-03-12T07:06:51.515Z,10.50
2023-03-12T07:09:22.137Z,11.00
2023-03-12T07:11:51.009Z,11.25
2023-03-12T07:14:21.349Z,12.50
2023-03-12T07:16:50.904Z,10.00
2023-03-12T07:19:20.012Z,9.75
2023-03-12T07:21:48.899Z,11.75
2023-03-12T07:24:17.724Z,7.75
2023-03-12T07:26:48.313Z,11.50
2023-03-12T07:29:16.946Z,8.50
2023-03-12T07:31:46.083Z,13.00
2023-03-12T07:34:14.788Z,13.00
2023-03-12T07:36:43.980Z,10.25
2023-03-12T07:39:12.779Z,10.60
2023-03-12T07:41:41.791Z,10.00
2023-03-12T07:44:13.648Z,10.80
2023-03-12T07:46:42.808Z,9.50
2023-03-12T07:49:11.390Z,10.40
2023-03-12T07:51:40.376Z,12.25
2023-03-12T07:54:08.995Z,9.00
2023-03-12T07:56:38.163Z,11.75
2023-03-12T07:59:06.992Z,6.50
2023-03-12T08:01:37.559Z,8.00
2023-03-12T08:04:06.409Z,10.00
2023-03-12T08:06:35.654Z,10.20
2023-03-12T08:09:04.457Z,7.80
2023-03-12T08:11:34.596Z,8.20
2023-03-12T08:14:03.532Z,8.60
2023-03-12T08:16:32.671Z,8.60
2023-03-12T08:19:02.761Z,22.25
2023-03-12T08:21:31.643Z,11.00
2023-03-12T08:24:00.191Z,9.20
2023-03-12T08:26:29.112Z,8.40
2023-03-12T08:29:00.242Z,4.80
2023-03-12T08:31:29.720Z,8.00
2023-03-12T08:33:58.300Z,8.00
2023-03-12T08:36:29.157Z,7.20
2023-03-12T08:38:57.870Z,7.60
2023-03-12T08:41:27.228Z,8.00
2023-03-12T08:43:56.225Z,10.40
2023-03-12T08:46:25.414Z,15.00
2023-03-12T08:48:54.250Z,8.80
2023-03-12T08:51:23.288Z,10.20
2023-03-12T08:53:53.202Z,9.80
2023-03-12T08:56:22.430Z,8.00
2023-03-12T08:58:51.639Z,9.00
2023-03-12T09:01:20.494Z,11.20
2023-03-12T09:03:51.078Z,11.20
2023-03-12T09:06:20.318Z,11.00
2023-03-12T09:08:49.317Z,10.80
2023-03-12T09:11:19.878Z,9.20
2023-03-12T09:14:16.938Z,9.00
2023-03-12T09:16:37.633Z,9.20
2023-03-12T09:19:06.356Z,11.40
2023-03-12T09:21:35.388Z,12.00
2023-03-12T09:24:03.928Z,6.00
2023-03-12T09:26:34.572Z,14.00
2023-03-12T09:29:03.164Z,11.25
2023-03-12T09:31:32.149Z,10.20
2023-03-12T09:34:00.880Z,9.00
2023-03-12T09:36:29.875Z,4.60
2023-03-12T09:38:58.836Z,8.40
2023-03-12T09:41:30.242Z,9.00
2023-03-12T09:44:05.398Z,11.25
2023-03-12T09:46:38.199Z,12.00
2023-03-12T09:49:12.846Z,9.80
2023-03-12T09:51:49.373Z,11.40
2023-03-12T09:54:26.055Z,10.20
2023-03-12T09:56:59.328Z,8.00
2023-03-12T09:59:29.603Z,11.00
2023-03-12T10:02:02.696Z,9.80
2023-03-12T10:04:58.655Z,5.00
2023-03-12T10:07:37.001Z,8.00
2023-03-12T10:10:29.236Z,8.40
2023-03-12T10:13:15.523Z,4.40
2023-03-12T10:15:58.533Z,8.40
2023-03-12T10:18:45.768Z,9.40
2023-03-12T10:21:24.058Z,9.00
2023-03-12T10:24:09.925Z,9.00
2023-03-12T10:26:41.499Z,8.20
2023-03-12T10:29:17.428Z,7.80
2023-03-12T10:31:55.684Z,11.00
2023-03-12T10:34:29.901Z,8.20
2023-03-12T10:37:01.965Z,11.00
2023-03-12T10:39:30.965Z,8.20
2023-03-12T10:42:02.244Z,8.60
2023-03-12T10:44:32.100Z,9.40
2023-03-12T10:47:13.542Z,10.60
2023-03-12T10:49:43.021Z,8.80
2023-03-12T10:52:17.308Z,12.40
2023-03-12T10:54:48.648Z,9.00
2023-03-12T10:57:17.535Z,10.60
2023-03-12T10:59:49.922Z,8.20
2023-03-12T11:02:32.551Z,8.80
2023-03-12T11:05:03.490Z,8.40
2023-03-12T11:07:33.631Z,9.80
2023-03-12T11:10:19.697Z,8.60
2023-03-12T11:13:03.541Z,8.00
2023-03-12T11:15:40.649Z,12.00
2023-03-12T11:18:37.902Z,8.80
2023-03-12T11:21:17.373Z,11.60
2023-03-12T11:23:48.438Z,10.80
2023-03-12T11:26:20.712Z,11.60
2023-03-12T11:28:51.281Z,9.40
2023-03-12T11:31:27.944Z,9.60
2023-03-12T11:34:04.507Z,11.60
2023-03-12T11:36:47.012Z,11.60
2023-03-12T11:39:27.325Z,9.00
2023-03-12T11:42:10.158Z,7.20
2023-03-12T11:44:52.886Z,10.40
2023-03-12T11:47:35.418Z,10.20
2023-03-12T11:50:25.669Z,12.60
2023-03-12T11:53:08.980Z,13.00
2023-03-12T11:55:50.146Z,10.60
2023-03-12T11:58:47.786Z,11.20
2023-03-12T12:01:28.212Z,6.00
2023-03-12T12:04:34.511Z,11.00
2023-03-12T12:07:13.659Z,12.40
2023-03-12T12:09:49.852Z,11.20
2023-03-12T12:12:30.987Z,12.60
2023-03-12T12:15:12.463Z,8.60
2023-03-12T12:17:55.951Z,10.60
2023-03-12T12:20:35.448Z,12.60
2023-03-12T12:23:18.162Z,9.80
2023-03-12T12:26:06.770Z,9.80
2023-03-12T12:28:58.266Z,12.40
2023-03-12T12:31:33.497Z,8.20
2023-03-12T12:34:17.352Z,11.20
2023-03-12T12:36:52.513Z,14.80
2023-03-12T12:39:32.577Z,11.20
2023-03-12T12:42:09.115Z,13.00
2023-03-12T12:44:44.808Z,6.20
2023-03-12T12:47:19.794Z,10.40
2023-03-12T12:49:50.915Z,13.00
2023-03-12T12:52:21.899Z,11.00
2023-03-12T12:55:01.001Z,10.80
2023-03-12T12:57:37.792Z,10.00
2023-03-12T13:00:24.762Z,6.60
2023-03-12T13:02:56.602Z,11.60
2023-03-12T13:05:28.308Z,9.20
2023-03-12T13:07:57.454Z,10.00
2023-03-12T13:10:53.145Z,8.60
2023-03-12T13:13:27.582Z,11.40
2023-03-12T13:16:31.358Z,11.80
2023-03-12T13:19:01.741Z,11.20
2023-03-12T13:21:39.801Z,12.60
2023-03-12T13:24:20.702Z,13.00
2023-03-12T13:26:59.155Z,13.00
2023-03-12T13:29:40.095Z,13.00
2023-03-12T13:32:21.601Z,15.40
2023-03-12T13:34:50.810Z,9.40
2023-03-12T13:37:32.062Z,11.20
2023-03-12T13:40:08.292Z,11.20
2023-03-12T13:42:41.936Z,14.20
2023-03-12T13:45:29.030Z,13.40
2023-03-12T13:48:01.762Z,16.50
2023-03-12T13:50:33.288Z,15.60
2023-03-12T13:53:05.417Z,18.75
2023-03-12T13:55:36.241Z,12.20
2023-03-12T13:58:16.009Z,12.40
2023-03-12T14:00:52.929Z,12.00
2023-03-12T14:03:26.787Z,12.20
2023-03-12T14:06:00.123Z,13.40
2023-03-12T14:08:56.037Z,10.00
2023-03-12T14:11:40.253Z,14.00
2023-03-12T14:14:31.207Z,16.80
2023-03-12T14:17:02.978Z,13.00
2023-03-12T14:19:34.416Z,12.80
2023-03-12T14:22:06.591Z,12.80
2023-03-12T14:24:39.642Z,14.00
2023-03-12T14:27:19.086Z,14.20
2023-03-12T14:29:56.578Z,24.75
2023-03-12T14:32:30.895Z,14.60
2023-03-12T14:35:14.417Z,12.75
2023-03-12T14:37:48.020Z,14.25
2023-03-12T14:40:25.531Z,9.00
2023-03-12T14:42:55.954Z,12.80
2023-03-12T14:45:27.290Z,15.40
2023-03-12T14:47:57.950Z,12.40
2023-03-12T14:50:28.329Z,13.75
2023-03-12T14:53:12.203Z,18.00
2023-03-12T14:55:40.910Z,13.00
2023-03-12T14:58:18.407Z,12.60
2023-03-12T15:00:58.841Z,14.80
2023-03-12T15:03:29.914Z,10.20
2023-03-12T15:05:59.176Z,13.40
2023-03-12T15:08:28.312Z,15.00
2023-03-12T15:10:59.577Z,13.00
2023-03-12T15:13:29.180Z,11.00
2023-03-12T15:15:59.886Z,1.40
2023-03-12T15:18:31.355Z,10.20
2023-03-12T15:21:03.095Z,13.60
2023-03-12T15:23:36.251Z,11.80
2023-03-12T15:26:14.520Z,12.00
2023-03-12T15:28:44.673Z,13.40
2023-03-12T15:31:17.929Z,13.60
2023-03-12T15:34:00.706Z,13.00
2023-03-12T15:36:31.222Z,12.20
2023-03-12T15:39:05.595Z,15.40
2023-03-12T15:41:48.107Z,15.00
2023-03-12T15:44:23.103Z,17.00
2023-03-12T15:46:55.155Z,14.75
2023-03-12T15:49:28.048Z,16.25
2023-03-12T15:52:02.241Z,17.25
2023-03-12T15:54:32.286Z,15.25
2023-03-12T15:57:23.325Z,15.00
2023-03-12T16:00:19.503Z,14.40
2023-03-12T16:02:53.323Z,12.25
2023-03-12T16:05:25.792Z,10.25
2023-03-12T16:07:54.873Z,18.25
2023-03-12T16:10:26.925Z,20.50
2023-03-12T16:13:03.169Z,24.75
2023-03-12T16:15:34.304Z,15.75
2023-03-12T16:18:05.233Z,19.00
2023-03-12T16:20:34.332Z,17.00
2023-03-12T16:23:03.078Z,15.25
2023-03-12T16:25:32.537Z,17.50
2023-03-12T16:28:04.797Z,19.00
2023-03-12T16:30:36.053Z,20.00
2023-03-12T16:33:09.175Z,14.50
2023-03-12T16:35:38.501Z,15.25
2023-03-12T16:38:07.866Z,20.25
2023-03-12T16:40:40.288Z,15.00
2023-03-12T16:43:16.812Z,17.00
2023-03-12T16:45:47.982Z,18.50
2023-03-12T16:48:20.180Z,12.50
2023-03-12T16:50:53.212Z,13.00
2023-03-12T16:53:23.306Z,14.50
2023-03-12T16:55:55.745Z,12.75
2023-03-12T16:58:26.096Z,19.00
2023-03-12T17:00:56.818Z,15.75
2023-03-12T17:03:35.616Z,16.50
2023-03-12T17:06:06.593Z,19.25
2023-03-12T17:08:36.094Z,15.75
2023-03-12T17:11:16.408Z,15.50
2023-03-12T17:13:46.908Z,17.00
2023-03-12T17:16:16.020Z,14.00
2023-03-12T17:18:46.527Z,13.00
2023-03-12T17:21:17.883Z,17.25
2023-03-12T17:23:49.257Z,13.60
2023-03-12T17:26:19.806Z,16.75
2023-03-12T17:28:48.710Z,14.50
2023-03-12T17:31:17.753Z,17.25
2023-03-12T17:33:47.971Z,15.75
2023-03-12T17:36:16.986Z,15.75
2023-03-12T17:38:45.789Z,18.75
2023-03-12T17:41:25.879Z,17.50
2023-03-12T17:43:58.603Z,18.00
2023-03-12T17:46:27.538Z,15.75
2023-03-12T17:48:57.709Z,18.50
2023-03-12T17:51:26.989Z,18.75
2023-03-12T17:53:55.654Z,14.50
2023-03-12T17:56:24.874Z,20.75
2023-03-12T17:58:53.581Z,19.00
2023-03-12T18:01:22.641Z,24.50
2023-03-12T18:03:51.325Z,27.25
2023-03-12T18:06:21.854Z,26.25
2023-03-12T18:08:51.213Z,25.33
2023-03-12T18:11:20.189Z,24.75
2023-03-12T18:13:49.313Z,28.75
2023-03-12T18:16:19.066Z,34.25
2023-03-12T18:18:47.775Z,32.75
2023-03-12T18:21:17.029Z,29.00
2023-03-12T18:23:47.169Z,27.75
2023-03-12T18:26:16.210Z,29.25
2023-03-12T18:28:44.895Z,34.00
2023-03-12T18:31:14.110Z,36.25
2023-03-12T18:33:43.007Z,37.25
2023-03-12T18:36:12.283Z,34.00
2023-03-12T18:38:41.538Z,37.00
2023-03-12T18:41:14.231Z,40.50
2023-03-12T18:43:43.519Z,35.75
2023-03-12T18:46:13.191Z,36.75
2023-03-12T18:48:44.131Z,37.25
2023-03-12T18:51:13.545Z,38.50
2023-03-12T18:53:42.405Z,37.25
2023-03-12T18:56:13.296Z,41.00
2023-03-12T18:58:42.340Z,42.67
2023-03-12T19:01:13.504Z,41.67
2023-03-12T19:03:42.183Z,43.67
2023-03-12T19:06:13.268Z,42.00
2023-03-12T19:08:42.845Z,41.00
2023-03-12T19:11:15.296Z,43.00
2023-03-12T19:13:44.283Z,40.50
2023-03-12T19:16:17.927Z,45.00
2023-03-12T19:18:46.722Z,51.25
2023-03-12T19:21:16.499Z,29.75
2023-03-12T19:23:45.591Z,52.50
2023-03-12T19:26:16.093Z,75.50
2023-03-12T19:28:45.459Z,57.25
2023-03-12T19:31:17.019Z,46.00
2023-03-12T19:33:45.613Z,43.25
2023-03-12T19:36:14.578Z,47.00
2023-03-12T19:38:43.330Z,45.00
2023-03-12T19:41:12.592Z,56.25
2023-03-12T19:43:42.792Z,52.00
2023-03-12T19:46:12.097Z,60.50
2023-03-12T19:48:40.914Z,56.25
2023-03-12T19:51:11.832Z,53.75
2023-03-12T19:53:40.518Z,46.25
2023-03-12T19:56:09.519Z,49.25
2023-03-12T19:58:38.177Z,59.00
2023-03-12T20:01:08.391Z,63.00
2023-03-12T20:03:43.133Z,63.25
2023-03-12T20:06:13.460Z,58.00
2023-03-12T20:08:42.033Z,64.25
2023-03-12T20:11:11.973Z,78.25
2023-03-12T20:13:40.858Z,76.25
2023-03-12T20:16:13.244Z,87.25
2023-03-12T20:18:42.134Z,79.00
2023-03-12T20:21:11.365Z,54.75
2023-03-12T20:23:40.114Z,69.50
2023-03-12T20:26:08.961Z,63.25
2023-03-12T20:28:37.594Z,13.25
2023-03-12T20:31:12.986Z,77.75
2023-03-12T20:33:41.924Z,88.75
2023-03-12T20:36:13.493Z,83.25
2023-03-12T20:38:42.728Z,81.00
2023-03-12T20:41:14.223Z,76.50
2023-03-12T20:43:43.181Z,75.25
2023-03-12T20:46:14.163Z,66.25
2023-03-12T20:48:42.883Z,60.25
2023-03-12T20:51:12.078Z,57.50
2023-03-12T20:53:40.790Z,59.00
2023-03-12T20:56:10.769Z,57.50
2023-03-12T20:58:39.652Z,64.50
2023-03-12T21:01:09.132Z,70.50
2023-03-12T21:03:41.852Z,73.25
2023-03-12T21:06:10.834Z,84.50
2023-03-12T21:08:39.624Z,60.00
2023-03-12T21:11:09.473Z,56.75
2023-03-12T21:13:38.400Z,55.50
2023-03-12T21:16:08.039Z,65.00
2023-03-12T21:18:38.635Z,62.50
2023-03-12T21:21:09.474Z,64.25
2023-03-12T21:23:38.960Z,51.75
2023-03-12T21:26:09.595Z,52.75
2023-03-12T21:28:38.569Z,49.75
2023-03-12T21:31:09.175Z,47.00
2023-03-12T21:33:39.545Z,46.00
2023-03-12T21:36:12.220Z,47.75
2023-03-12T21:38:42.782Z,48.75
2023-03-12T21:41:14.892Z,57.75
2023-03-12T21:43:43.944Z,73.50
2023-03-12T21:46:14.877Z,67.75
2023-03-12T21:48:47.842Z,67.25
2023-03-12T21:51:19.194Z,77.75
2023-03-12T21:53:48.000Z,71.50
2023-03-12T21:56:17.206Z,80.50
2023-03-12T21:58:45.902Z,77.75
2023-03-12T22:01:16.663Z,41.00
2023-03-12T22:03:48.105Z,48.00
2023-03-12T22:06:17.847Z,50.25
2023-03-12T22:08:48.187Z,59.50
2023-03-12T22:11:17.584Z,50.25
2023-03-12T22:13:46.499Z,52.75
2023-03-12T22:16:16.144Z,46.50
2023-03-12T22:18:47.388Z,43.67
2023-03-12T22:21:18.864Z,44.67
2023-03-12T22:23:51.198Z,46.25
2023-03-12T22:26:21.484Z,48.75
2023-03-12T22:28:51.506Z,49.75
2023-03-12T22:31:21.882Z,46.00
2023-03-12T22:33:51.909Z,43.33
2023-03-12T22:36:21.445Z,46.33
2023-03-12T22:38:50.800Z,39.25
2023-03-12T22:41:22.364Z,42.67
2023-03-12T22:43:52.824Z,51.00
2023-03-12T22:46:23.494Z,38.75
2023-03-12T22:48:56.625Z,35.00
2023-03-12T22:51:26.833Z,39.75
2023-03-12T22:53:55.619Z,37.75
2023-03-12T22:56:24.926Z,36.75
2023-03-12T22:58:53.904Z,34.75
2023-03-12T23:01:24.085Z,8.00
2023-03-12T23:03:54.451Z,28.00
2023-03-12T23:06:25.720Z,27.75
2023-03-12T23:08:55.872Z,33.25
2023-03-12T23:11:26.481Z,37.50
2023-03-12T23:13:55.791Z,38.75
2023-03-12T23:16:26.592Z,44.33
2023-03-12T23:18:57.326Z,45.00
2023-03-12T23:21:26.371Z,45.00
2023-03-12T23:23:55.492Z,49.75
2023-03-12T23:26:26.770Z,53.75
2023-03-12T23:28:55.578Z,58.50
2023-03-12T23:31:24.671Z,44.67
2023-03-12T23:33:53.500Z,51.00
2023-03-12T23:36:25.480Z,53.25
2023-03-12T23:38:54.139Z,59.50
2023-03-12T23:41:24.572Z,67.00
2023-03-12T23:43:53.762Z,54.50
2023-03-12T23:46:23.050Z,51.00
2023-03-12T23:48:51.839Z,43.67
2023-03-12T23:51:24.101Z,44.00
2023-03-12T23:53:57.695Z,38.67
2023-03-12T23:56:28.335Z,35.75
2023-03-12T23:58:56.903Z,42.25
